Time;durP1;ratioP1;P1;durP2;ratioP2;P2;SDS_P1;SDS_P2;PMS_P1;PMS_P2;Temp;Humidity;BMP_temperature;BMP_pressure;BME280_temperature;BME280_humidity;BME280_pressure;Samples;Min_cycle;Max_cycle;Signal;HPM_P1;HPM_P2
2022/01/28 00:02:27;;;;;;;;;;;;;;;;;;5074253;28;19970;-59
2022/01/28 00:04:54;;;;;;;;;;;;;;;;;;5074613;28;19978;-59
2022/01/28 00:07:20;;;;;;;;;;;;;;;;;;5073599;28;19929;-59
2022/01/28 00:09:46;;;;;;;;;;;;;;;;;;5074146;28;19924;-59
2022/01/28 00:12:13;;;;;;;;;;;;;;;;;;5074138;28;19986;-59
2022/01/28 00:14:45;;;;;;;;;;;;;;;;;;5073104;28;19928;-59
2022/01/28 00:17:45;;;;;;;;;;;;;;;;;;5074192;28;19925;-59
2022/01/28 00:20:55;;;;;;;;;;;;;;;;;;5073255;28;19925;-59
2022/01/28 00:37:07;;;;;;;;;;;;;;;;;;5073894;28;20290;-59
2022/01/28 00:39:33;;;;;;;;;;;;;;;;;;5073352;28;20031;-59
2022/01/28 00:41:59;;;;;;;;;;;;;;;;;;5072810;28;19993;-59
2022/01/28 00:44:25;;;;;;;;;;;;;;;;;;5073452;28;19924;-59
2022/01/28 00:46:52;;;;;;;;;;;;;;;;;;5073728;28;19924;-59
2022/01/28 00:49:18;;;;;;;;;;;;;;;;;;5072881;28;19928;-59
2022/01/28 00:51:44;;;;;;;;;;;;;;;;;;5073170;28;20267;-59
2022/01/28 00:54:10;;;;;;;;;;;;;;;;;;5073061;28;19951;-59
2022/01/28 00:56:36;;;;;;;;;;;;;;;;;;5072162;28;19928;-59
2022/01/28 00:59:02;;;;;;;;;;;;;;;;;;5073619;28;19925;-59
2022/01/28 01:01:29;;;;;;;;;;;;;;;;;;5088357;28;19924;-59
2022/01/28 01:03:55;;;;;;;;;;;;;;;;;;5092717;28;19935;-59
2022/01/28 01:06:21;;;;;;;;;;;;;;;;;;5093288;28;20336;-59
2022/01/28 01:08:47;;;;;;;;;;;;;;;;;;5092223;28;19923;-59
2022/01/28 01:11:13;;;;;;;;;;;;;;;;;;5093270;28;20329;-59
2022/01/28 01:13:41;;;;;;;;;;;;;;;;;;5092996;28;19928;-58
2022/01/28 01:16:10;;;;;;;;;;;;;;;;;;5092623;28;19928;-59
2022/01/28 01:18:45;;;;;;;;;;;;;;;;;;5092750;28;19924;-59
2022/01/28 01:21:17;;;;;;;;;;;;;;;;;;5093165;28;19966;-59
2022/01/28 01:23:50;;;;;;;;;;;;;;;;;;5091808;28;20019;-59
2022/01/28 01:26:16;;;;;;;;;;;;;;;;;;5093133;28;19924;-59
2022/01/28 01:28:42;;;;;;;;;;;;;;;;;;5092757;28;19924;-59
2022/01/28 01:31:11;;;;;;;;;;;;;;;;;;5092105;28;20392;-59
2022/01/28 01:33:42;;;;;;;;;;;;;;;;;;5092273;28;19967;-59
2022/01/28 01:36:08;;;;;;;;;;;;;;;;;;5092844;28;19924;-59
2022/01/28 01:38:37;;;;;;;;;;;;;;;;;;5091716;28;19928;-59
2022/01/28 01:41:07;;;;;;;;;;;;;;;;;;5092915;28;19970;-59
2022/01/28 01:43:45;;;;;;;;;;;;;;;;;;5092434;28;19924;-59
2022/01/28 01:46:21;;;;;;;;;;;;;;;;;;5092026;28;19924;-59
2022/01/28 01:54:15;;;;;;;;;;;;;;;;;;5092331;28;20020;-59
2022/01/28 01:56:41;;;;;;;;;;;;;;;;;;5092314;28;19924;-59
2022/01/28 01:59:07;;;;;;;;;;;;;;;;;;5091563;28;19947;-59
2022/01/28 02:01:33;;;;;;;;;;;;;;;;;;5092079;28;19931;-59
2022/01/28 02:03:59;;;;;;;;;;;;;;;;;;5092416;28;19993;-59
2022/01/28 02:06:25;;;;;;;;;;;;;;;;;;5090636;28;19931;-59
2022/01/28 02:08:51;;;;;;;;;;;;;;;;;;5092194;28;19969;-59
2022/01/28 02:11:18;;;;;;;;;;;;;;;;;;5092204;28;19977;-59
2022/01/28 02:13:44;;;;;;;;;;;;;;;;;;5090970;28;19928;-59
2022/01/28 02:16:10;;;;;;;;;;;;;;;;;;5092344;28;19950;-59
2022/01/28 02:18:36;;;;;;;;;;;;;;;;;;5091819;28;19931;-59
2022/01/28 02:21:06;;;;;;;;;;;;;;;;;;5091510;28;19924;-59
2022/01/28 02:23:32;;;;;;;;;;;;;;;;;;5091546;28;20007;-59
2022/01/28 02:26:01;;;;;;;;;;;;;;;;;;5091333;28;21350;-59
2022/01/28 02:28:30;;;;;;;;;;;;;;;;;;5091019;28;19924;-59
2022/01/28 02:30:56;;;;;;;;;;;;;;;;;;5092069;28;19982;-59
2022/01/28 02:33:24;;;;;;;;;;;;;;;;;;5090973;28;20604;-59
2022/01/28 02:35:51;;;;;;;;;;;;;;;;;;5092042;28;19978;-59
2022/01/28 02:38:17;;;;;;;;;;;;;;;;;;5091684;28;19936;-59
2022/01/28 02:40:47;;;;;;;;;;;;;;;;;;5090865;28;19928;-59
2022/01/28 02:43:27;;;;;;;;;;;;;;;;;;5091910;28;19931;-59
2022/01/28 02:45:55;;;;;;;;;;;;;;;;;;5091854;28;20358;-59
2022/01/28 02:48:25;;;;;;;;;;;;;;;;;;5091048;28;20019;-59
2022/01/28 02:51:02;;;;;;;;;;;;;;;;;;5091940;28;19924;-59
2022/01/28 02:53:36;;;;;;;;;;;;;;;;;;5091458;28;19924;-59
2022/01/28 02:56:03;;;;;;;;;;;;;;;;;;5091261;28;20020;-59
2022/01/28 02:58:29;;;;;;;;;;;;;;;;;;5091323;28;20022;-59
2022/01/28 03:00:55;;;;;;;;;;;;;;;;;;5091714;28;19943;-59
2022/01/28 03:03:23;;;;;;;;;;;;;;;;;;5090764;28;19925;-59
2022/01/28 03:05:49;;;;;;;;;;;;;;;;;;5091459;28;19963;-59
2022/01/28 03:08:15;;;;;;;;;;;;;;;;;;5091504;28;19928;-59
2022/01/28 03:10:47;;;;;;;;;;;;;;;;;;5090880;28;20366;-59
2022/01/28 03:13:30;;;;;;;;;;;;;;;;;;5091528;28;19924;-60
2022/01/28 03:16:06;;;;;;;;;;;;;;;;;;5090769;28;19928;-59
2022/01/28 03:18:42;;;;;;;;;;;;;;;;;;5095030;28;19924;-60
2022/01/28 03:21:19;;;;;;;;;;;;;;;;;;5095605;28;19955;-59
2022/01/28 03:23:45;;;;;;;;;;;;;;;;;;5094243;28;19973;-59
2022/01/28 03:26:13;;;;;;;;;;;;;;;;;;5095430;28;19931;-59
2022/01/28 03:28:39;;;;;;;;;;;;;;;;;;5094914;28;19928;-59
2022/01/28 03:31:05;;;;;;;;;;;;;;;;;;5094592;28;20353;-59
2022/01/28 03:33:31;;;;;;;;;;;;;;;;;;5094963;28;19932;-59
2022/01/28 03:35:57;;;;;;;;;;;;;;;;;;5095411;28;19931;-59
2022/01/28 03:38:23;;;;;;;;;;;;;;;;;;5094484;28;20294;-60
2022/01/28 03:40:53;;;;;;;;;;;;;;;;;;5095125;28;19970;-60
2022/01/28 03:43:19;;;;;;;;;;;;;;;;;;5095005;28;20015;-59
2022/01/28 03:45:45;;;;;;;;;;;;;;;;;;5094056;28;19940;-59
2022/01/28 03:48:11;;;;;;;;;;;;;;;;;;5095142;28;19924;-59
2022/01/28 03:50:37;;;;;;;;;;;;;;;;;;5093824;28;19928;-59
2022/01/28 03:53:03;;;;;;;;;;;;;;;;;;5095017;28;20344;-59
2022/01/28 03:55:29;;;;;;;;;;;;;;;;;;5094308;28;19978;-59
2022/01/28 03:57:55;;;;;;;;;;;;;;;;;;5093933;28;20428;-60
2022/01/28 04:00:25;;;;;;;;;;;;;;;;;;5094752;28;19928;-59
2022/01/28 04:03:01;;;;;;;;;;;;;;;;;;5094933;28;19985;-59
2022/01/28 04:13:56;;;;;;;;;;;;;;;;;;5092635;28;19931;-58
2022/01/28 04:16:32;;;;;;;;;;;;;;;;;;5094147;28;19924;-59
2022/01/28 04:19:01;;;;;;;;;;;;;;;;;;5093892;28;19979;-59
2022/01/28 04:21:27;;;;;;;;;;;;;;;;;;5093922;28;19925;-59
2022/01/28 04:23:53;;;;;;;;;;;;;;;;;;5094215;28;19993;-59
2022/01/28 04:26:19;;;;;;;;;;;;;;;;;;5093494;28;19970;-59
2022/01/28 04:28:45;;;;;;;;;;;;;;;;;;5093283;28;19924;-59
2022/01/28 04:31:11;;;;;;;;;;;;;;;;;;5093973;28;19985;-59
2022/01/28 04:33:37;;;;;;;;;;;;;;;;;;5093057;28;19928;-59
2022/01/28 04:36:04;;;;;;;;;;;;;;;;;;5094175;28;19928;-59
2022/01/28 04:38:37;;;;;;;;;;;;;;;;;;5093712;28;19924;-59
2022/01/28 04:41:10;;;;;;;;;;;;;;;;;;5093124;28;20350;-59
2022/01/28 04:43:42;;;;;;;;;;;;;;;;;;5093604;28;19935;-59
2022/01/28 04:46:14;;;;;;;;;;;;;;;;;;5094172;28;19967;-59
2022/01/28 04:48:47;;;;;;;;;;;;;;;;;;5092969;28;19977;-59
2022/01/28 04:51:21;;;;;;;;;;;;;;;;;;5093573;28;20371;-59
2022/01/28 04:54:02;;;;;;;;;;;;;;;;;;5092777;28;19969;-59
2022/01/28 04:56:42;;;;;;;;;;;;;;;;;;5093365;28;19925;-59
2022/01/28 04:59:27;;;;;;;;;;;;;;;;;;5093758;28;19984;-58
2022/01/28 05:02:17;;;;;;;;;;;;;;;;;;5092722;28;19985;-58
2022/01/28 05:07:43;;;;;;;;;;;;;;;;;;5091328;28;20015;-59
2022/01/28 05:13:17;;;;;;;;;;;;;;;;;;5093463;28;20023;-59
2022/01/28 05:26:37;;;;;;;;;;;;;;;;;;5092221;28;19931;-59
2022/01/28 05:29:03;;;;;;;;;;;;;;;;;;5092158;28;19924;-58
2022/01/28 05:31:29;;;;;;;;;;;;;;;;;;5092435;28;19986;-57
2022/01/28 05:33:55;;;;;;;;;;;;;;;;;;5092927;28;19928;-58
2022/01/28 05:36:22;;;;;;;;;;;;;;;;;;5092152;28;20264;-57
2022/01/28 05:38:48;;;;;;;;;;;;;;;;;;5092520;28;19924;-57
2022/01/28 05:41:14;;;;;;;;;;;;;;;;;;5091736;28;19950;-57
2022/01/28 05:43:40;;;;;;;;;;;;;;;;;;5091826;28;19924;-58
2022/01/28 05:46:08;;;;;;;;;;;;;;;;;;5092489;28;19928;-58
2022/01/28 05:48:34;;;;;;;;;;;;;;;;;;5092599;28;19944;-59
2022/01/28 05:51:00;;;;;;;;;;;;;;;;;;5091995;28;19924;-59
2022/01/28 05:53:26;;;;;;;;;;;;;;;;;;5092324;28;19955;-59
2022/01/28 05:55:52;;;;;;;;;;;;;;;;;;5092478;28;19969;-58
2022/01/28 05:58:19;;;;;;;;;;;;;;;;;;5091713;28;19985;-59
2022/01/28 06:00:45;;;;;;;;;;;;;;;;;;5091903;28;19927;-59
2022/01/28 06:03:11;;;;;;;;;;;;;;;;;;5092580;28;19928;-58
2022/01/28 06:05:37;;;;;;;;;;;;;;;;;;5091340;28;19928;-59
2022/01/28 06:08:06;;;;;;;;;;;;;;;;;;5092369;28;19986;-59
2022/01/28 06:10:32;;;;;;;;;;;;;;;;;;5091721;28;19924;-60
2022/01/28 06:12:58;;;;;;;;;;;;;;;;;;5091469;28;19927;-59
2022/01/28 06:15:24;;;;;;;;;;;;;;;;;;5091718;28;19928;-59
2022/01/28 06:17:50;;;;;;;;;;;;;;;;;;5092243;28;19969;-60
2022/01/28 06:20:19;;;;;;;;;;;;;;;;;;5091429;28;19928;-59
2022/01/28 06:22:45;;;;;;;;;;;;;;;;;;5091529;28;19957;-59
2022/01/28 06:25:11;;;;;;;;;;;;;;;;;;5091957;28;20427;-59
2022/01/28 06:27:37;;;;;;;;;;;;;;;;;;5091142;28;19932;-59
2022/01/28 06:30:04;;;;;;;;;;;;;;;;;;5091857;28;19924;-59
2022/01/28 06:32:30;;;;;;;;;;;;;;;;;;5090880;28;19930;-59
2022/01/28 06:34:56;;;;;;;;;;;;;;;;;;5091816;28;20375;-58
2022/01/28 06:37:22;;;;;;;;;;;;;;;;;;5091919;28;19924;-58
2022/01/28 06:39:48;;;;;;;;;;;;;;;;;;5090812;28;20435;-58
2022/01/28 06:42:14;;;;;;;;;;;;;;;;;;5091721;28;19970;-59
2022/01/28 06:44:40;;;;;;;;;;;;;;;;;;5091807;28;19935;-59
2022/01/28 06:47:10;;;;;;;;;;;;;;;;;;5091054;28;19924;-58
2022/01/28 06:49:36;;;;;;;;;;;;;;;;;;5091582;28;19971;-59
2022/01/28 06:52:02;;;;;;;;;;;;;;;;;;5093098;28;19928;-59
2022/01/28 06:54:28;;;;;;;;;;;;;;;;;;5094880;28;19924;-59
2022/01/28 06:56:54;;;;;;;;;;;;;;;;;;5095820;28;19977;-58
2022/01/28 06:59:20;;;;;;;;;;;;;;;;;;5096044;28;20333;-59
2022/01/28 07:01:47;;;;;;;;;;;;;;;;;;5094836;28;19934;-59
2022/01/28 07:04:14;;;;;;;;;;;;;;;;;;5095847;28;19965;-59
2022/01/28 07:06:40;;;;;;;;;;;;;;;;;;5094408;28;19934;-58
2022/01/28 07:09:07;;;;;;;;;;;;;;;;;;5094494;28;20344;-59
2022/01/28 07:11:33;;;;;;;;;;;;;;;;;;5094904;28;19924;-59
2022/01/28 07:13:59;;;;;;;;;;;;;;;;;;5095790;28;19924;-59
2022/01/28 07:16:25;;;;;;;;;;;;;;;;;;5094477;28;19993;-59
2022/01/28 07:18:51;;;;;;;;;;;;;;;;;;5095679;28;19977;-58
2022/01/28 07:21:17;;;;;;;;;;;;;;;;;;5095753;28;20340;-58
2022/01/28 07:23:43;;;;;;;;;;;;;;;;;;5094371;28;19924;-59
2022/01/28 07:26:09;;;;;;;;;;;;;;;;;;5095612;28;19928;-59
2022/01/28 07:28:36;;;;;;;;;;;;;;;;;;5094707;28;19924;-58
2022/01/28 07:31:02;;;;;;;;;;;;;;;;;;5095464;28;19924;-59
2022/01/28 07:33:28;;;;;;;;;;;;;;;;;;5095395;28;19928;-58
2022/01/28 07:35:54;;;;;;;;;;;;;;;;;;5094633;28;19924;-59
2022/01/28 07:38:20;;;;;;;;;;;;;;;;;;5095215;28;19928;-59
2022/01/28 07:40:46;;;;;;;;;;;;;;;;;;5094956;28;19924;-59
2022/01/28 07:43:12;;;;;;;;;;;;;;;;;;5094721;28;19969;-59
2022/01/28 07:45:38;;;;;;;;;;;;;;;;;;5095219;28;19932;-59
2022/01/28 07:48:04;;;;;;;;;;;;;;;;;;5095038;28;19925;-59
2022/01/28 07:50:31;;;;;;;;;;;;;;;;;;5094047;28;19924;-58
2022/01/28 07:52:57;;;;;;;;;;;;;;;;;;5095000;28;20002;-58
2022/01/28 07:55:23;;;;;;;;;;;;;;;;;;5094943;28;19924;-57
2022/01/28 07:57:49;;;;;;;;;;;;;;;;;;5093636;28;19928;-57
2022/01/28 08:00:15;;;;;;;;;;;;;;;;;;5095036;28;19924;-58
2022/01/28 08:02:42;;;;;;;;;;;;;;;;;;5094020;28;19977;-58
2022/01/28 08:05:08;;;;;;;;;;;;;;;;;;5093182;28;20296;-57
2022/01/28 08:07:34;;;;;;;;;;;;;;;;;;5093996;28;19925;-56
2022/01/28 08:10:00;;;;;;;;;;;;;;;;;;5093698;28;20332;-57
2022/01/28 08:12:26;;;;;;;;;;;;;;;;;;5093258;28;19932;-57
2022/01/28 08:14:52;;;;;;;;;;;;;;;;;;5094592;28;20370;-57
2022/01/28 08:17:18;;;;;;;;;;;;;;;;;;5094563;28;19973;-57
2022/01/28 08:19:44;;;;;;;;;;;;;;;;;;5090148;28;20386;-57
2022/01/28 08:22:11;;;;;;;;;;;;;;;;;;5093893;28;19978;-58
2022/01/28 08:24:37;;;;;;;;;;;;;;;;;;5093558;28;20496;-58
2022/01/28 08:27:03;;;;;;;;;;;;;;;;;;5093301;28;19924;-57
2022/01/28 08:29:29;;;;;;;;;;;;;;;;;;5093445;28;19928;-58
2022/01/28 08:31:55;;;;;;;;;;;;;;;;;;5093107;28;19986;-58
2022/01/28 08:34:21;;;;;;;;;;;;;;;;;;5093624;28;19924;-58
2022/01/28 08:36:47;;;;;;;;;;;;;;;;;;5093338;28;19924;-58
2022/01/28 08:39:14;;;;;;;;;;;;;;;;;;5093012;28;19981;-58
2022/01/28 08:41:42;;;;;;;;;;;;;;;;;;5093281;28;19969;-58
2022/01/28 08:44:08;;;;;;;;;;;;;;;;;;5093709;28;19935;-57
2022/01/28 08:46:34;;;;;;;;;;;;;;;;;;5092369;28;20379;-57
2022/01/28 08:49:01;;;;;;;;;;;;;;;;;;5093496;28;19928;-57
2022/01/28 08:51:27;;;;;;;;;;;;;;;;;;5093352;28;19924;-57
2022/01/28 08:53:54;;;;;;;;;;;;;;;;;;5092864;28;19928;-57
2022/01/28 08:56:20;;;;;;;;;;;;;;;;;;5090935;28;19970;-57
2022/01/28 08:58:46;;;;;;;;;;;;;;;;;;5092920;28;19924;-57
2022/01/28 09:01:12;;;;;;;;;;;;;;;;;;5092541;28;19970;-57
2022/01/28 09:03:38;;;;;;;;;;;;;;;;;;5092789;28;19973;-57
2022/01/28 09:06:04;;;;;;;;;;;;;;;;;;5093029;28;19928;-57
2022/01/28 09:08:31;;;;;;;;;;;;;;;;;;5092278;28;19989;-57
2022/01/28 09:11:00;;;;;;;;;;;;;;;;;;5093627;28;19924;-57
2022/01/28 09:13:28;;;;;;;;;;;;;;;;;;5093114;28;20198;-57
2022/01/28 09:15:54;;;;;;;;;;;;;;;;;;5092378;28;19931;-57
2022/01/28 09:18:20;;;;;;;;;;;;;;;;;;5093257;28;19924;-57
2022/01/28 09:20:46;;;;;;;;;;;;;;;;;;5093379;28;19924;-57
2022/01/28 09:23:12;;;;;;;;;;;;;;;;;;5092441;28;19978;-58
2022/01/28 09:25:38;;;;;;;;;;;;;;;;;;5092948;28;19931;-57
2022/01/28 09:28:05;;;;;;;;;;;;;;;;;;5092863;28;19928;-57
2022/01/28 09:30:31;;;;;;;;;;;;;;;;;;5093189;28;19970;-57
2022/01/28 09:32:58;;;;;;;;;;;;;;;;;;5093088;28;19928;-53
2022/01/28 09:35:24;;;;;;;;;;;;;;;;;;5091644;28;20474;-56
2022/01/28 09:37:50;;;;;;;;;;;;;;;;;;5093216;28;19928;-55
2022/01/28 09:40:16;;;;;;;;;;;;;;;;;;5092732;28;20375;-56
2022/01/28 09:42:45;;;;;;;;;;;;;;;;;;5091931;28;19970;-57
2022/01/28 09:45:11;;;;;;;;;;;;;;;;;;5092834;28;19924;-57
2022/01/28 09:47:37;;;;;;;;;;;;;;;;;;5092470;28;19924;-58
2022/01/28 09:50:03;;;;;;;;;;;;;;;;;;5091829;28;19973;-57
2022/01/28 09:52:29;;;;;;;;;;;;;;;;;;5092728;28;19924;-58
2022/01/28 09:54:55;;;;;;;;;;;;;;;;;;5092646;28;19924;-58
2022/01/28 09:57:21;;;;;;;;;;;;;;;;;;5092010;28;19981;-59
2022/01/28 09:59:48;;;;;;;;;;;;;;;;;;5092205;28;19928;-57
2022/01/28 10:02:14;;;;;;;;;;;;;;;;;;5092620;28;19953;-58
2022/01/28 10:04:40;;;;;;;;;;;;;;;;;;5091691;28;20259;-58
2022/01/28 10:07:06;;;;;;;;;;;;;;;;;;5092697;28;19970;-58
2022/01/28 10:09:32;;;;;;;;;;;;;;;;;;5092049;28;20332;-58
2022/01/28 10:11:58;;;;;;;;;;;;;;;;;;5091690;28;19931;-57
2022/01/28 10:14:27;;;;;;;;;;;;;;;;;;5092082;28;19924;-57
2022/01/28 10:16:53;;;;;;;;;;;;;;;;;;5092242;28;19924;-58
2022/01/28 10:19:19;;;;;;;;;;;;;;;;;;5091647;28;20263;-57
2022/01/28 10:21:45;;;;;;;;;;;;;;;;;;5092126;28;19977;-57
2022/01/28 10:24:11;;;;;;;;;;;;;;;;;;5092190;28;19928;-57
2022/01/28 10:26:37;;;;;;;;;;;;;;;;;;5090496;28;19982;-58
2022/01/28 10:29:04;;;;;;;;;;;;;;;;;;5092300;28;19924;-57
2022/01/28 10:31:30;;;;;;;;;;;;;;;;;;5090951;28;19928;-59
2022/01/28 10:33:56;;;;;;;;;;;;;;;;;;5074679;28;19928;-58
2022/01/28 10:36:22;;;;;;;;;;;;;;;;;;5071705;28;19924;-58
2022/01/28 10:38:48;;;;;;;;;;;;;;;;;;5087575;28;20036;-58
2022/01/28 10:41:14;;;;;;;;;;;;;;;;;;5091275;28;19969;-58
2022/01/28 10:43:40;;;;;;;;;;;;;;;;;;5091341;28;19931;-58
2022/01/28 10:46:06;;;;;;;;;;;;;;;;;;5090881;28;20375;-58
2022/01/28 10:48:32;;;;;;;;;;;;;;;;;;5090909;28;19924;-57
2022/01/28 10:50:58;;;;;;;;;;;;;;;;;;5091816;28;19969;-58
2022/01/28 10:53:27;;;;;;;;;;;;;;;;;;5090876;28;19925;-57
2022/01/28 10:55:54;;;;;;;;;;;;;;;;;;5091508;28;19931;-57
2022/01/28 10:58:20;;;;;;;;;;;;;;;;;;5091692;28;19936;-57
2022/01/28 11:00:46;;;;;;;;;;;;;;;;;;5090388;28;19924;-57
2022/01/28 11:03:12;;;;;;;;;;;;;;;;;;5091496;28;19978;-57
2022/01/28 11:05:38;;;;;;;;;;;;;;;;;;5091269;28;19924;-57
2022/01/28 11:08:04;;;;;;;;;;;;;;;;;;5090930;28;19931;-57
2022/01/28 11:10:30;;;;;;;;;;;;;;;;;;5091136;28;20344;-58
2022/01/28 11:12:56;;;;;;;;;;;;;;;;;;5091638;28;19926;-58
2022/01/28 11:15:22;;;;;;;;;;;;;;;;;;5090577;28;20368;-57
2022/01/28 11:17:48;;;;;;;;;;;;;;;;;;5090889;28;20367;-57
2022/01/28 11:20:17;;;;;;;;;;;;;;;;;;5091519;28;19932;-57
2022/01/28 11:22:44;;;;;;;;;;;;;;;;;;5090331;28;20162;-58
2022/01/28 11:25:10;;;;;;;;;;;;;;;;;;5091283;28;19928;-58
2022/01/28 11:27:36;;;;;;;;;;;;;;;;;;5091060;28;19928;-57
2022/01/28 11:30:02;;;;;;;;;;;;;;;;;;5090831;28;19924;-57
2022/01/28 11:32:28;;;;;;;;;;;;;;;;;;5090424;28;20440;-58
2022/01/28 11:34:54;;;;;;;;;;;;;;;;;;5090770;28;19924;-58
2022/01/28 11:37:20;;;;;;;;;;;;;;;;;;5091128;28;19924;-58
2022/01/28 11:39:47;;;;;;;;;;;;;;;;;;5094841;28;19951;-58
2022/01/28 11:42:13;;;;;;;;;;;;;;;;;;5094279;28;20029;-59
2022/01/28 11:44:39;;;;;;;;;;;;;;;;;;5094637;28;19928;-58
2022/01/28 11:47:05;;;;;;;;;;;;;;;;;;5094531;28;19969;-58
2022/01/28 11:49:31;;;;;;;;;;;;;;;;;;5094041;28;19924;-58
2022/01/28 11:51:57;;;;;;;;;;;;;;;;;;5094830;28;19928;-58
2022/01/28 11:54:25;;;;;;;;;;;;;;;;;;5094540;28;19924;-57
2022/01/28 11:56:51;;;;;;;;;;;;;;;;;;5093823;28;20015;-58
2022/01/28 11:59:18;;;;;;;;;;;;;;;;;;5095006;28;19977;-58
2022/01/28 12:01:44;;;;;;;;;;;;;;;;;;5093909;28;20399;-58
2022/01/28 12:04:10;;;;;;;;;;;;;;;;;;5094106;28;19932;-58
2022/01/28 12:06:36;;;;;;;;;;;;;;;;;;5094243;28;19974;-58
2022/01/28 12:09:02;;;;;;;;;;;;;;;;;;5094173;28;19924;-58
2022/01/28 12:11:28;;;;;;;;;;;;;;;;;;5092796;28;19970;-58
2022/01/28 12:14:03;;;;;;;;;;;;;;;;;;5094226;28;19928;-58
2022/01/28 12:16:30;;;;;;;;;;;;;;;;;;5092776;28;20093;-58
2022/01/28 12:18:56;;;;;;;;;;;;;;;;;;5093135;28;19924;-58
2022/01/28 12:21:22;;;;;;;;;;;;;;;;;;5093573;28;20431;-58
2022/01/28 12:23:48;;;;;;;;;;;;;;;;;;5093249;28;20030;-58
2022/01/28 12:26:16;;;;;;;;;;;;;;;;;;5093418;28;19954;-58
2022/01/28 12:28:43;;;;;;;;;;;;;;;;;;5094182;28;19930;-58
2022/01/28 12:31:09;;;;;;;;;;;;;;;;;;5093149;28;20357;-58
2022/01/28 12:33:35;;;;;;;;;;;;;;;;;;5093693;28;19978;-58
2022/01/28 12:36:01;;;;;;;;;;;;;;;;;;5094039;28;19963;-58
2022/01/28 12:38:29;;;;;;;;;;;;;;;;;;5092704;28;19924;-58
2022/01/28 12:40:57;;;;;;;;;;;;;;;;;;5094210;28;19928;-59
2022/01/28 12:43:24;;;;;;;;;;;;;;;;;;5094069;28;19931;-57
2022/01/28 12:45:50;;;;;;;;;;;;;;;;;;5093161;28;20345;-58
2022/01/28 12:48:16;;;;;;;;;;;;;;;;;;5093230;28;19924;-57
2022/01/28 12:50:42;;;;;;;;;;;;;;;;;;5092981;28;19927;-57
2022/01/28 12:53:08;;;;;;;;;;;;;;;;;;5092756;28;19977;-57
2022/01/28 12:55:34;;;;;;;;;;;;;;;;;;5093591;28;19931;-57
2022/01/28 12:58:00;;;;;;;;;;;;;;;;;;5093745;28;19928;-57
2022/01/28 13:00:26;;;;;;;;;;;;;;;;;;5092471;28;19924;-57
2022/01/28 13:02:52;;;;;;;;;;;;;;;;;;5093102;28;19977;-57
2022/01/28 13:05:18;;;;;;;;;;;;;;;;;;5093524;28;19931;-57
2022/01/28 13:10:28;;;;;;;;;;;;;;;;;;5093075;28;19926;-57
2022/01/28 13:12:54;;;;;;;;;;;;;;;;;;5092884;28;19925;-57
2022/01/28 13:15:20;;;;;;;;;;;;;;;;;;5092876;28;19973;-58
2022/01/28 13:17:46;;;;;;;;;;;;;;;;;;5092955;28;19927;-58
2022/01/28 13:20:12;;;;;;;;;;;;;;;;;;5092639;28;19970;-58
2022/01/28 13:22:38;;;;;;;;;;;;;;;;;;5092888;28;19924;-58
2022/01/28 13:25:05;;;;;;;;;;;;;;;;;;5093288;28;19951;-58
2022/01/28 13:27:31;;;;;;;;;;;;;;;;;;5092217;28;19932;-57
2022/01/28 13:29:57;;;;;;;;;;;;;;;;;;5093277;28;19924;-57
2022/01/28 13:32:26;;;;;;;;;;;;;;;;;;5093013;28;19978;-57
2022/01/28 13:34:52;;;;;;;;;;;;;;;;;;5092168;28;19935;-58
2022/01/28 13:37:18;;;;;;;;;;;;;;;;;;5092718;28;20337;-58
2022/01/28 13:39:44;;;;;;;;;;;;;;;;;;5092900;28;19928;-58
2022/01/28 13:42:11;;;;;;;;;;;;;;;;;;5092252;28;19928;-57
2022/01/28 13:44:41;;;;;;;;;;;;;;;;;;5092709;28;19923;-57
2022/01/28 13:47:09;;;;;;;;;;;;;;;;;;5092746;28;19930;-57
2022/01/28 13:49:35;;;;;;;;;;;;;;;;;;5091677;28;19925;-57
2022/01/28 13:52:01;;;;;;;;;;;;;;;;;;5093037;28;19924;-57
2022/01/28 13:54:27;;;;;;;;;;;;;;;;;;5092482;28;19924;-57
2022/01/28 13:56:53;;;;;;;;;;;;;;;;;;5091855;28;19978;-57
2022/01/28 13:59:20;;;;;;;;;;;;;;;;;;5092603;28;19927;-57
2022/01/28 14:01:46;;;;;;;;;;;;;;;;;;5091326;28;19931;-57
2022/01/28 14:04:12;;;;;;;;;;;;;;;;;;5091655;28;19924;-57
2022/01/28 14:06:39;;;;;;;;;;;;;;;;;;5092225;28;19937;-57
2022/01/28 14:09:05;;;;;;;;;;;;;;;;;;5092996;28;19969;-57
2022/01/28 14:11:33;;;;;;;;;;;;;;;;;;5091410;28;20019;-58
2022/01/28 14:13:59;;;;;;;;;;;;;;;;;;5092320;28;19924;-57
2022/01/28 14:16:26;;;;;;;;;;;;;;;;;;5091741;28;20550;-57
2022/01/28 14:18:52;;;;;;;;;;;;;;;;;;5092440;28;19931;-57
2022/01/28 14:21:18;;;;;;;;;;;;;;;;;;5092454;28;20332;-57
2022/01/28 14:23:44;;;;;;;;;;;;;;;;;;5090862;28;19928;-57
2022/01/28 14:26:10;;;;;;;;;;;;;;;;;;5092362;28;20372;-57
2022/01/28 14:28:40;;;;;;;;;;;;;;;;;;5091830;28;19947;-57
2022/01/28 14:31:09;;;;;;;;;;;;;;;;;;5091320;28;19924;-57
2022/01/28 14:33:35;;;;;;;;;;;;;;;;;;5091593;28;20642;-57
2022/01/28 14:36:01;;;;;;;;;;;;;;;;;;5092262;28;19924;-57
2022/01/28 14:38:27;;;;;;;;;;;;;;;;;;5090746;28;19925;-57
2022/01/28 14:40:53;;;;;;;;;;;;;;;;;;5092211;28;19969;-57
2022/01/28 14:43:19;;;;;;;;;;;;;;;;;;5091923;28;19928;-57
2022/01/28 14:45:46;;;;;;;;;;;;;;;;;;5090911;28;20005;-57
2022/01/28 14:48:15;;;;;;;;;;;;;;;;;;5092083;28;19924;-57
2022/01/28 14:50:41;;;;;;;;;;;;;;;;;;5091815;28;19924;-57
2022/01/28 14:53:07;;;;;;;;;;;;;;;;;;5091213;28;19969;-57
2022/01/28 14:55:33;;;;;;;;;;;;;;;;;;5091765;28;19986;-57
2022/01/28 14:58:00;;;;;;;;;;;;;;;;;;5091832;28;19924;-57
2022/01/28 15:00:26;;;;;;;;;;;;;;;;;;5090410;28;19969;-57
2022/01/28 15:02:52;;;;;;;;;;;;;;;;;;5092064;28;19925;-58
2022/01/28 15:05:18;;;;;;;;;;;;;;;;;;5091721;28;19928;-58
2022/01/28 15:07:45;;;;;;;;;;;;;;;;;;5090586;28;19928;-57
2022/01/28 15:10:12;;;;;;;;;;;;;;;;;;5091542;28;20011;-57
2022/01/28 15:12:40;;;;;;;;;;;;;;;;;;5092021;28;20404;-57
2022/01/28 15:15:06;;;;;;;;;;;;;;;;;;5095296;28;19953;-57
2022/01/28 15:17:32;;;;;;;;;;;;;;;;;;5095671;28;19928;-57
2022/01/28 15:19:59;;;;;;;;;;;;;;;;;;5095074;28;19924;-57
2022/01/28 15:22:25;;;;;;;;;;;;;;;;;;5094593;28;20020;-57
2022/01/28 15:24:51;;;;;;;;;;;;;;;;;;5094938;28;19997;-57
2022/01/28 15:27:18;;;;;;;;;;;;;;;;;;5094548;28;19977;-58
2022/01/28 15:29:58;;;;;;;;;;;;;;;;;;5094942;28;19928;-57
2022/01/28 15:37:48;;;;;;;;;;;;;;;;;;5094555;28;20282;-57
2022/01/28 15:40:14;;;;;;;;;;;;;;;;;;5094882;28;19970;-57
2022/01/28 15:42:40;;;;;;;;;;;;;;;;;;5093830;28;19928;-57
2022/01/28 15:45:06;;;;;;;;;;;;;;;;;;5094700;28;19955;-57
2022/01/28 15:47:33;;;;;;;;;;;;;;;;;;5094914;28;20045;-57
2022/01/28 15:49:59;;;;;;;;;;;;;;;;;;5094266;28;19923;-57
2022/01/28 15:52:25;;;;;;;;;;;;;;;;;;5094757;28;19924;-56
2022/01/28 15:54:51;;;;;;;;;;;;;;;;;;5094865;28;20437;-57
2022/01/28 15:57:17;;;;;;;;;;;;;;;;;;5094409;28;19970;-58
2022/01/28 15:59:43;;;;;;;;;;;;;;;;;;5094446;28;19977;-58
2022/01/28 16:02:09;;;;;;;;;;;;;;;;;;5094290;28;19928;-58
2022/01/28 16:04:39;;;;;;;;;;;;;;;;;;5094436;28;19974;-58
2022/01/28 16:07:05;;;;;;;;;;;;;;;;;;5095005;28;19928;-58
2022/01/28 16:09:31;;;;;;;;;;;;;;;;;;5093493;28;19989;-57
2022/01/28 16:12:00;;;;;;;;;;;;;;;;;;5094883;28;19924;-57
2022/01/28 16:14:29;;;;;;;;;;;;;;;;;;5094245;28;20495;-58
2022/01/28 16:19:49;;;;;;;;;;;;;;;;;;5057309;28;19931;-59
2022/01/28 16:22:15;;;;;;;;;;;;;;;;;;5094466;28;20330;-58
2022/01/28 16:24:41;;;;;;;;;;;;;;;;;;5092587;28;19932;-57
2022/01/28 16:27:07;;;;;;;;;;;;;;;;;;5094318;28;20341;-58
2022/01/28 16:29:34;;;;;;;;;;;;;;;;;;5093904;28;19970;-58
2022/01/28 16:32:00;;;;;;;;;;;;;;;;;;5093946;28;20243;-58
2022/01/28 16:34:26;;;;;;;;;;;;;;;;;;5090927;28;19924;-58
2022/01/28 16:36:52;;;;;;;;;;;;;;;;;;5094215;28;19970;-57
2022/01/28 16:39:19;;;;;;;;;;;;;;;;;;5092328;28;19924;-57
2022/01/28 16:41:45;;;;;;;;;;;;;;;;;;5093581;28;19936;-58
2022/01/28 16:44:14;;;;;;;;;;;;;;;;;;5093275;28;20033;-58
2022/01/28 16:46:40;;;;;;;;;;;;;;;;;;5093609;28;19931;-57
2022/01/28 16:49:06;;;;;;;;;;;;;;;;;;5093976;28;19924;-57
2022/01/28 16:51:32;;;;;;;;;;;;;;;;;;5092467;28;19928;-57
2022/01/28 16:53:58;;;;;;;;;;;;;;;;;;5093655;28;19977;-57
2022/01/28 16:56:24;;;;;;;;;;;;;;;;;;5093362;28;19928;-56
2022/01/28 16:58:50;;;;;;;;;;;;;;;;;;5092723;28;19924;-57
2022/01/28 17:01:17;;;;;;;;;;;;;;;;;;5093189;28;19925;-57
2022/01/28 17:03:43;;;;;;;;;;;;;;;;;;5093391;28;19930;-57
2022/01/28 17:06:10;;;;;;;;;;;;;;;;;;5092659;28;19993;-57
2022/01/28 17:08:36;;;;;;;;;;;;;;;;;;5093275;28;19960;-57
2022/01/28 17:11:24;;;;;;;;;;;;;;;;;;5093507;28;19978;-57
2022/01/28 17:13:50;;;;;;;;;;;;;;;;;;5092724;28;19924;-58
2022/01/28 17:16:16;;;;;;;;;;;;;;;;;;5093296;28;19924;-57
2022/01/28 17:18:42;;;;;;;;;;;;;;;;;;5092846;28;20370;-57
2022/01/28 17:21:09;;;;;;;;;;;;;;;;;;5092528;28;19931;-57
2022/01/28 17:23:35;;;;;;;;;;;;;;;;;;5092683;28;20349;-57
2022/01/28 17:26:01;;;;;;;;;;;;;;;;;;5092912;28;19995;-57
2022/01/28 17:28:27;;;;;;;;;;;;;;;;;;5091202;28;20324;-58
2022/01/28 17:30:54;;;;;;;;;;;;;;;;;;5092715;28;20388;-57
2022/01/28 17:33:20;;;;;;;;;;;;;;;;;;5092422;28;19931;-58
2022/01/28 17:35:46;;;;;;;;;;;;;;;;;;5091456;28;19924;-58
2022/01/28 17:38:15;;;;;;;;;;;;;;;;;;5092318;28;19928;-57
2022/01/28 17:40:41;;;;;;;;;;;;;;;;;;5091120;28;20009;-58
2022/01/28 17:43:07;;;;;;;;;;;;;;;;;;5092458;28;20294;-57